EGPE/INV METAR and TAF weather

Enter ICAO airport designator
Station Type Date Time Source
EGPE METAR 2019/05/20 10:20 UTC NOAA

EGPE 201020Z VRB01KT 9999 FEW004 FEW015TCU BKN048 12/11 Q1013


Station Type Date Time Source
EGPE Decoded METAR 2019/05/20 10:20 UTC NOAA

Inverness / Dalcross, United Kingdom (EGPE) 57-32N 004-03W 0M
May 20, 2019 - 06:20 AM EDT / 2019.05.20 1020 UTC
Wind: Variable at 1 MPH (1 KT):0
Visibility: greater than 7 mile(s):0
Sky conditions: mostly cloudy
Weather: Towering cumulus clouds observed
Temperature: 53 F (12 C)
Dew Point: 51 F (11 C)
Relative Humidity: 93%
Pressure (altimeter): 29.91 in. Hg (1013 hPa)
ob: EGPE 201020Z VRB01KT 9999 FEW004 FEW015TCU BKN048 12/11 Q1013
cycle: 10

Station Type Date Time Source
EGPE TAF UTC NOAA

Error!

Example: see airport list